createdAt,value
2022-09-12T00:00:05.686Z,5.28
2022-09-12T00:05:13.970Z,4.95
2022-09-12T00:10:17.558Z,5.43
2022-09-12T00:15:20.008Z,5.22
2022-09-12T00:20:22.345Z,4.68
2022-09-12T00:25:24.740Z,5.07
2022-09-12T00:30:27.338Z,4.70
2022-09-12T00:35:29.714Z,4.60
2022-09-12T00:40:32.130Z,5.10
2022-09-12T00:45:34.868Z,5.68
2022-09-12T00:50:37.474Z,5.53
2022-09-12T00:55:43.868Z,4.90
2022-09-12T01:00:47.650Z,5.45
2022-09-12T01:06:18.248Z,5.38
2022-09-12T01:11:22.029Z,5.45
2022-09-12T01:16:24.438Z,5.32
2022-09-12T01:21:40.343Z,5.03
2022-09-12T01:27:08.506Z,5.05
2022-09-12T01:32:22.918Z,5.30
2022-09-12T01:37:57.578Z,5.15
2022-09-12T01:43:12.289Z,5.00
2022-09-12T01:48:22.813Z,4.55
2022-09-12T01:53:34.311Z,5.68
2022-09-12T01:58:45.850Z,5.40
2022-09-12T02:03:58.412Z,4.97
2022-09-12T02:09:06.673Z,5.85
2022-09-12T02:14:14.201Z,5.35
2022-09-12T02:19:20.108Z,4.65
2022-09-12T02:24:25.820Z,5.90
2022-09-12T02:29:28.327Z,4.60
2022-09-12T02:35:03.325Z,5.30
2022-09-12T02:40:09.043Z,4.57
2022-09-12T02:45:12.615Z,4.95
2022-09-12T02:50:15.236Z,4.95
2022-09-12T02:55:17.984Z,5.55
2022-09-12T03:00:20.725Z,4.78
2022-09-12T03:05:57.142Z,4.75
2022-09-12T03:11:08.411Z,4.90
2022-09-12T03:16:39.986Z,4.97
2022-09-12T03:22:14.029Z,4.85
2022-09-12T03:27:28.465Z,5.10
2022-09-12T03:32:49.673Z,5.53
2022-09-12T03:37:53.168Z,5.28
2022-09-12T03:42:55.651Z,5.13
2022-09-12T03:48:00.794Z,4.95
2022-09-12T03:53:03.574Z,5.40
2022-09-12T03:58:06.014Z,5.22
2022-09-12T04:03:09.262Z,5.47
2022-09-12T04:08:11.583Z,4.63
2022-09-12T04:13:14.017Z,4.55
2022-09-12T04:18:16.439Z,6.38
2022-09-12T04:23:19.529Z,5.10
2022-09-12T04:28:22.361Z,5.22
2022-09-12T04:33:24.825Z,4.85
2022-09-12T04:38:27.409Z,4.95
2022-09-12T04:43:29.824Z,4.82
2022-09-12T04:48:32.263Z,4.45
2022-09-12T04:53:34.798Z,5.63
2022-09-12T04:58:38.350Z,5.43
2022-09-12T05:03:45.354Z,6.85
2022-09-12T05:08:48.351Z,6.45
2022-09-12T05:13:50.929Z,4.97
2022-09-12T05:18:53.906Z,4.40
2022-09-12T05:23:59.627Z,4.28
2022-09-12T05:29:04.673Z,7.93
2022-09-12T05:34:09.330Z,7.20
2022-09-12T05:39:12.110Z,7.90
2022-09-12T05:44:14.818Z,13.93
2022-09-12T05:49:17.372Z,7.47
2022-09-12T05:54:20.800Z,7.43
2022-09-12T05:59:24.214Z,7.80
2022-09-12T06:04:28.090Z,9.03
2022-09-12T06:09:30.586Z,5.97
2022-09-12T06:14:33.366Z,43.73
2022-09-12T06:19:35.774Z,19.93
2022-09-12T06:24:38.405Z,20.30
2022-09-12T06:29:41.946Z,32.17
2022-09-12T06:34:47.350Z,26.00
2022-09-12T06:39:49.752Z,28.30
2022-09-12T06:44:52.243Z,29.75
2022-09-12T06:49:54.785Z,26.98
2022-09-12T06:54:57.229Z,26.98
2022-09-12T07:00:00.122Z,40.10
2022-09-12T07:05:02.651Z,27.85
2022-09-12T07:10:06.851Z,22.75
2022-09-12T07:15:10.763Z,22.42
2022-09-12T07:20:13.359Z,14.73
2022-09-12T07:25:15.749Z,26.95
2022-09-12T07:30:18.431Z,28.58
2022-09-12T07:35:21.659Z,23.65
2022-09-12T07:40:24.088Z,23.38
2022-09-12T07:45:27.035Z,23.05
2022-09-12T07:50:29.615Z,24.52
2022-09-12T07:55:32.929Z,8.68
2022-09-12T08:00:36.490Z,20.30
2022-09-12T08:05:38.878Z,23.05
2022-09-12T08:10:41.353Z,22.27
2022-09-12T08:15:43.731Z,20.95
2022-09-12T08:20:46.099Z,19.75
2022-09-12T08:25:48.590Z,9.13
2022-09-12T08:30:51.312Z,20.00
2022-09-12T08:35:53.756Z,11.52
2022-09-12T08:41:05.299Z,12.40
2022-09-12T08:46:45.289Z,16.35
2022-09-12T08:51:47.853Z,17.48
2022-09-12T08:56:51.332Z,10.25
2022-09-12T09:01:59.974Z,18.45
2022-09-12T09:07:18.451Z,19.52
2022-09-12T09:12:44.134Z,15.40
2022-09-12T09:17:51.922Z,16.13
2022-09-12T09:23:16.165Z,11.27
2022-09-12T09:28:29.873Z,16.40
2022-09-12T09:33:36.018Z,10.98
2022-09-12T09:39:03.641Z,3.70
2022-09-12T09:44:15.015Z,7.40
2022-09-12T09:49:18.246Z,12.40
2022-09-12T09:54:35.566Z,8.90
2022-09-12T09:59:38.019Z,15.45
2022-09-12T10:04:57.849Z,4.93
2022-09-12T10:10:26.623Z,8.48
2022-09-12T10:15:33.757Z,14.82
2022-09-12T10:20:45.417Z,20.40
2022-09-12T10:26:01.555Z,7.20
2022-09-12T10:31:04.434Z,15.40
2022-09-12T10:36:07.011Z,16.13
2022-09-12T10:41:11.408Z,7.20
2022-09-12T10:46:19.642Z,4.47
2022-09-12T10:51:25.117Z,10.10
2022-09-12T10:56:39.483Z,14.38
2022-09-12T11:01:47.260Z,7.53
2022-09-12T11:06:57.648Z,11.40
2022-09-12T11:12:24.308Z,6.40
2022-09-12T11:17:53.862Z,4.90
2022-09-12T11:23:21.101Z,7.70
2022-09-12T11:28:38.641Z,6.35
2022-09-12T11:33:56.668Z,1.70
2022-09-12T11:39:20.697Z,3.28
2022-09-12T11:44:28.846Z,3.70
2022-09-12T11:49:40.597Z,6.70
2022-09-12T11:54:52.929Z,98.18
2022-09-12T12:00:21.371Z,37.78
2022-09-12T12:05:36.127Z,48.38
2022-09-12T12:10:41.791Z,62.90
2022-09-12T12:16:14.520Z,62.55
2022-09-12T12:21:20.059Z,61.42
2022-09-12T12:27:00.540Z,54.38
2022-09-12T12:32:02.856Z,49.83
2022-09-12T12:37:23.060Z,38.28
2022-09-12T12:42:34.530Z,38.45
2022-09-12T12:47:39.930Z,41.22
2022-09-12T12:52:45.306Z,46.22
2022-09-12T12:57:50.976Z,28.02
2022-09-12T13:03:06.674Z,40.45
2022-09-12T13:08:11.280Z,25.75
2022-09-12T13:13:25.075Z,29.50
2022-09-12T13:18:49.129Z,24.48
2022-09-12T13:24:04.255Z,23.75
2022-09-12T13:29:10.803Z,17.70
2022-09-12T13:34:22.636Z,28.08
2022-09-12T13:39:27.596Z,7.50
2022-09-12T13:44:32.917Z,6.20
2022-09-12T13:49:40.090Z,16.70
2022-09-12T13:54:45.414Z,4.38
2022-09-12T13:59:47.750Z,9.60
2022-09-12T14:05:11.438Z,4.82
2022-09-12T14:10:20.830Z,7.35
2022-09-12T14:15:30.232Z,7.13
2022-09-12T14:20:37.232Z,8.25
2022-09-12T14:25:41.456Z,11.98
2022-09-12T14:30:58.675Z,9.98
2022-09-12T14:36:18.515Z,6.32
2022-09-12T14:41:26.135Z,9.27
2022-09-12T14:46:28.601Z,9.82
2022-09-12T14:51:38.313Z,2.75
2022-09-12T14:56:53.833Z,4.00
2022-09-12T15:02:20.489Z,1.75
2022-09-12T15:07:28.704Z,3.80
2022-09-12T15:12:31.237Z,5.00
2022-09-12T15:17:33.568Z,5.28
2022-09-12T15:22:37.725Z,2.10
2022-09-12T15:27:43.309Z,2.92
2022-09-12T15:32:46.343Z,4.80
2022-09-12T15:37:49.825Z,3.30
2022-09-12T15:42:52.748Z,6.88
2022-09-12T15:47:55.729Z,6.03
2022-09-12T15:52:58.805Z,2.08
2022-09-12T15:58:06.273Z,1.98
2022-09-12T16:21:46.710Z,6.40
2022-09-12T16:26:49.234Z,8.80
2022-09-12T16:31:51.897Z,6.60
2022-09-12T16:36:54.306Z,7.18
2022-09-12T16:41:56.722Z,4.43
2022-09-12T16:47:00.337Z,7.30
2022-09-12T16:52:03.193Z,8.10
2022-09-12T16:57:06.609Z,9.30
2022-09-12T17:02:13.705Z,9.45
2022-09-12T17:07:16.420Z,9.32
2022-09-12T17:12:18.916Z,8.55
2022-09-12T17:17:21.348Z,8.68
2022-09-12T17:22:23.773Z,9.13
2022-09-12T17:27:26.520Z,8.18
2022-09-12T17:32:29.546Z,8.25
2022-09-12T17:37:32.574Z,8.95
2022-09-12T17:42:36.574Z,9.65
2022-09-12T17:47:40.291Z,9.88
2022-09-12T17:52:43.069Z,10.02
2022-09-12T17:57:45.923Z,9.63
2022-09-12T18:02:50.114Z,9.27
2022-09-12T18:07:52.947Z,10.75
2022-09-12T18:12:55.664Z,9.75
2022-09-12T18:17:58.505Z,9.05
2022-09-12T18:23:01.554Z,9.88
2022-09-12T18:28:09.018Z,8.70
2022-09-12T18:33:11.956Z,9.85
2022-09-12T18:38:14.768Z,9.18
2022-09-12T18:43:17.482Z,9.43
2022-09-12T18:48:20.047Z,10.88
2022-09-12T18:53:22.806Z,9.80
2022-09-12T18:58:25.588Z,9.43
2022-09-12T19:03:28.395Z,10.20
2022-09-12T19:08:31.231Z,9.38
2022-09-12T19:13:37.253Z,10.55
2022-09-12T19:18:40.654Z,8.77
2022-09-12T19:23:43.568Z,9.90
2022-09-12T19:28:46.998Z,9.75
2022-09-12T19:33:50.385Z,9.13
2022-09-12T19:38:53.199Z,9.38
2022-09-12T19:43:56.655Z,10.05
2022-09-12T19:48:59.151Z,9.68
2022-09-12T19:54:01.661Z,9.90
2022-09-12T19:59:04.283Z,8.13
2022-09-12T20:04:06.945Z,8.60
2022-09-12T20:09:09.423Z,10.32
2022-09-12T20:14:11.755Z,8.50
2022-09-12T20:19:14.229Z,8.82
2022-09-12T20:24:16.655Z,9.80
2022-09-12T20:29:19.026Z,9.15
2022-09-12T20:34:21.726Z,9.88
2022-09-12T20:39:24.493Z,9.15
2022-09-12T20:44:27.632Z,8.75
2022-09-12T20:49:30.093Z,9.45
2022-09-12T20:54:32.580Z,9.10
2022-09-12T20:59:35.286Z,10.00
2022-09-12T21:04:37.774Z,9.15
2022-09-12T21:09:40.126Z,10.05
2022-09-12T21:14:42.495Z,8.77
2022-09-12T21:19:45.111Z,8.95
2022-09-12T21:24:47.812Z,9.90
2022-09-12T21:29:50.606Z,9.63
2022-09-12T21:34:52.958Z,8.93
2022-09-12T21:39:55.389Z,9.82
2022-09-12T21:44:57.830Z,10.43
2022-09-12T21:50:00.275Z,9.15
2022-09-12T21:55:07.214Z,9.48
2022-09-12T22:00:15.755Z,9.25
2022-09-12T22:05:21.349Z,10.50
2022-09-12T22:10:23.790Z,9.43
2022-09-12T22:15:41.636Z,9.40
2022-09-12T22:20:44.088Z,9.55
2022-09-12T22:25:47.091Z,8.98
2022-09-12T22:30:49.622Z,9.30
2022-09-12T22:35:52.114Z,9.82
2022-09-12T22:40:54.511Z,8.35
2022-09-12T22:45:56.954Z,9.30
2022-09-12T22:50:59.871Z,8.95
2022-09-12T22:56:02.754Z,9.00
2022-09-12T23:01:06.365Z,9.05
2022-09-12T23:06:10.078Z,9.00
2022-09-12T23:11:14.873Z,8.70
2022-09-12T23:16:23.002Z,8.70
2022-09-12T23:21:25.468Z,8.00
2022-09-12T23:26:28.419Z,8.55
2022-09-12T23:31:32.522Z,9.18
2022-09-12T23:36:35.072Z,8.65
2022-09-12T23:41:38.184Z,8.68
2022-09-12T23:46:40.565Z,8.55
2022-09-12T23:51:42.986Z,8.80
2022-09-12T23:56:46.134Z,9.55
